sensor_id;sensor_type;location;lat;lon;timestamp;P1;durP1;ratioP1;P2;durP2;ratioP2
42616;SDS011;28250;52.320;0.360;2022-07-04T00:02:05;4.07;;;1.20;;
42616;SDS011;28250;52.320;0.360;2022-07-04T00:04:32;1.65;;;1.27;;
42616;SDS011;28250;52.320;0.360;2022-07-04T00:06:58;1.90;;;1.10;;
42616;SDS011;28250;52.320;0.360;2022-07-04T00:09:25;2.30;;;1.38;;
42616;SDS011;28250;52.320;0.360;2022-07-04T00:11:51;1.88;;;1.30;;
42616;SDS011;28250;52.320;0.360;2022-07-04T00:14:18;4.13;;;1.40;;
42616;SDS011;28250;52.320;0.360;2022-07-04T00:16:45;3.28;;;1.30;;
42616;SDS011;28250;52.320;0.360;2022-07-04T00:19:11;2.07;;;1.30;;
42616;SDS011;28250;52.320;0.360;2022-07-04T00:21:38;1.40;;;1.30;;
42616;SDS011;28250;52.320;0.360;2022-07-04T00:24:05;2.33;;;1.20;;
42616;SDS011;28250;52.320;0.360;2022-07-04T00:26:31;3.03;;;1.20;;
42616;SDS011;28250;52.320;0.360;2022-07-04T00:28:58;3.22;;;1.40;;
42616;SDS011;28250;52.320;0.360;2022-07-04T00:31:25;2.47;;;1.35;;
42616;SDS011;28250;52.320;0.360;2022-07-04T00:33:51;2.92;;;1.30;;
42616;SDS011;28250;52.320;0.360;2022-07-04T00:36:18;3.63;;;1.60;;
42616;SDS011;28250;52.320;0.360;2022-07-04T00:38:45;1.55;;;1.30;;
42616;SDS011;28250;52.320;0.360;2022-07-04T00:41:12;3.05;;;1.30;;
42616;SDS011;28250;52.320;0.360;2022-07-04T00:43:39;2.15;;;1.40;;
42616;SDS011;28250;52.320;0.360;2022-07-04T00:46:05;1.45;;;1.23;;
42616;SDS011;28250;52.320;0.360;2022-07-04T00:48:32;1.88;;;1.20;;
42616;SDS011;28250;52.320;0.360;2022-07-04T00:50:59;2.30;;;1.70;;
42616;SDS011;28250;52.320;0.360;2022-07-04T00:53:26;2.15;;;1.35;;
42616;SDS011;28250;52.320;0.360;2022-07-04T00:55:53;7.00;;;1.30;;
42616;SDS011;28250;52.320;0.360;2022-07-04T00:58:21;2.55;;;1.73;;
42616;SDS011;28250;52.320;0.360;2022-07-04T01:00:49;2.53;;;1.40;;
42616;SDS011;28250;52.320;0.360;2022-07-04T01:03:16;3.28;;;1.45;;
42616;SDS011;28250;52.320;0.360;2022-07-04T01:05:43;2.73;;;1.80;;
42616;SDS011;28250;52.320;0.360;2022-07-04T01:08:10;1.70;;;1.60;;
42616;SDS011;28250;52.320;0.360;2022-07-04T01:10:37;1.40;;;1.30;;
42616;SDS011;28250;52.320;0.360;2022-07-04T01:13:03;2.30;;;1.30;;
42616;SDS011;28250;52.320;0.360;2022-07-04T01:15:30;2.63;;;1.30;;
42616;SDS011;28250;52.320;0.360;2022-07-04T01:17:57;2.10;;;1.37;;
42616;SDS011;28250;52.320;0.360;2022-07-04T01:20:24;2.33;;;1.45;;
42616;SDS011;28250;52.320;0.360;2022-07-04T01:22:50;2.80;;;1.70;;
42616;SDS011;28250;52.320;0.360;2022-07-04T01:25:17;1.77;;;1.33;;
42616;SDS011;28250;52.320;0.360;2022-07-04T01:27:44;1.63;;;1.40;;
42616;SDS011;28250;52.320;0.360;2022-07-04T01:30:11;1.50;;;1.40;;
42616;SDS011;28250;52.320;0.360;2022-07-04T01:35:05;1.95;;;1.45;;
42616;SDS011;28250;52.320;0.360;2022-07-04T01:39:59;3.10;;;1.80;;
42616;SDS011;28250;52.320;0.360;2022-07-04T01:42:26;1.63;;;1.50;;
42616;SDS011;28250;52.320;0.360;2022-07-04T01:44:53;4.82;;;1.80;;
42616;SDS011;28250;52.320;0.360;2022-07-04T01:47:19;2.50;;;1.30;;
42616;SDS011;28250;52.320;0.360;2022-07-04T01:49:46;4.45;;;1.85;;
42616;SDS011;28250;52.320;0.360;2022-07-04T01:52:12;2.13;;;1.48;;
42616;SDS011;28250;52.320;0.360;2022-07-04T01:54:41;2.58;;;1.65;;
42616;SDS011;28250;52.320;0.360;2022-07-04T01:57:08;3.03;;;1.55;;
42616;SDS011;28250;52.320;0.360;2022-07-04T01:59:34;1.97;;;1.50;;
42616;SDS011;28250;52.320;0.360;2022-07-04T02:02:20;3.65;;;1.70;;
42616;SDS011;28250;52.320;0.360;2022-07-04T02:04:46;2.05;;;1.73;;
42616;SDS011;28250;52.320;0.360;2022-07-04T02:07:13;2.08;;;1.77;;
42616;SDS011;28250;52.320;0.360;2022-07-04T02:09:40;2.60;;;1.60;;
42616;SDS011;28250;52.320;0.360;2022-07-04T02:12:07;5.03;;;1.75;;
42616;SDS011;28250;52.320;0.360;2022-07-04T02:14:52;2.67;;;1.80;;
42616;SDS011;28250;52.320;0.360;2022-07-04T02:17:19;3.17;;;1.90;;
42616;SDS011;28250;52.320;0.360;2022-07-04T02:19:45;4.00;;;1.90;;
42616;SDS011;28250;52.320;0.360;2022-07-04T02:24:40;2.67;;;1.38;;
42616;SDS011;28250;52.320;0.360;2022-07-04T02:27:07;3.00;;;2.00;;
42616;SDS011;28250;52.320;0.360;2022-07-04T02:29:35;2.03;;;1.70;;
42616;SDS011;28250;52.320;0.360;2022-07-04T02:32:02;2.63;;;1.67;;
42616;SDS011;28250;52.320;0.360;2022-07-04T02:34:29;3.63;;;1.90;;
42616;SDS011;28250;52.320;0.360;2022-07-04T02:36:56;2.28;;;1.60;;
42616;SDS011;28250;52.320;0.360;2022-07-04T02:39:23;1.90;;;1.80;;
42616;SDS011;28250;52.320;0.360;2022-07-04T02:41:50;2.50;;;1.80;;
42616;SDS011;28250;52.320;0.360;2022-07-04T02:44:16;1.95;;;1.50;;
42616;SDS011;28250;52.320;0.360;2022-07-04T02:46:43;2.72;;;1.73;;
42616;SDS011;28250;52.320;0.360;2022-07-04T02:49:10;3.78;;;2.05;;
42616;SDS011;28250;52.320;0.360;2022-07-04T02:51:37;2.75;;;1.80;;
42616;SDS011;28250;52.320;0.360;2022-07-04T02:54:03;6.47;;;1.80;;
42616;SDS011;28250;52.320;0.360;2022-07-04T02:56:30;4.83;;;2.00;;
42616;SDS011;28250;52.320;0.360;2022-07-04T02:58:57;2.45;;;1.60;;
42616;SDS011;28250;52.320;0.360;2022-07-04T03:01:23;2.17;;;1.98;;
42616;SDS011;28250;52.320;0.360;2022-07-04T03:03:50;2.13;;;1.63;;
42616;SDS011;28250;52.320;0.360;2022-07-04T03:06:17;4.00;;;1.75;;
42616;SDS011;28250;52.320;0.360;2022-07-04T03:08:44;1.70;;;1.60;;
42616;SDS011;28250;52.320;0.360;2022-07-04T03:11:10;3.15;;;1.90;;
42616;SDS011;28250;52.320;0.360;2022-07-04T03:13:39;2.75;;;1.98;;
42616;SDS011;28250;52.320;0.360;2022-07-04T03:16:06;4.00;;;1.85;;
42616;SDS011;28250;52.320;0.360;2022-07-04T03:18:33;2.27;;;1.87;;
42616;SDS011;28250;52.320;0.360;2022-07-04T03:21:00;3.58;;;1.77;;
42616;SDS011;28250;52.320;0.360;2022-07-04T03:23:31;3.65;;;1.73;;
42616;SDS011;28250;52.320;0.360;2022-07-04T03:25:59;4.40;;;1.88;;
42616;SDS011;28250;52.320;0.360;2022-07-04T03:28:27;3.40;;;2.13;;
42616;SDS011;28250;52.320;0.360;2022-07-04T03:30:53;2.53;;;1.92;;
42616;SDS011;28250;52.320;0.360;2022-07-04T03:33:20;5.53;;;2.10;;
42616;SDS011;28250;52.320;0.360;2022-07-04T03:35:47;5.47;;;2.00;;
42616;SDS011;28250;52.320;0.360;2022-07-04T03:38:13;2.47;;;2.20;;
42616;SDS011;28250;52.320;0.360;2022-07-04T03:40:40;3.65;;;2.08;;
42616;SDS011;28250;52.320;0.360;2022-07-04T03:43:07;4.30;;;1.80;;
42616;SDS011;28250;52.320;0.360;2022-07-04T03:45:33;3.10;;;1.95;;
42616;SDS011;28250;52.320;0.360;2022-07-04T03:48:00;1.92;;;1.70;;
42616;SDS011;28250;52.320;0.360;2022-07-04T03:50:29;2.83;;;1.92;;
42616;SDS011;28250;52.320;0.360;2022-07-04T03:52:55;2.70;;;1.90;;
42616;SDS011;28250;52.320;0.360;2022-07-04T03:55:22;2.92;;;1.90;;
42616;SDS011;28250;52.320;0.360;2022-07-04T03:57:49;2.17;;;1.90;;
42616;SDS011;28250;52.320;0.360;2022-07-04T04:00:15;3.53;;;2.00;;
42616;SDS011;28250;52.320;0.360;2022-07-04T04:02:42;2.30;;;1.97;;
42616;SDS011;28250;52.320;0.360;2022-07-04T04:05:09;2.42;;;2.08;;
42616;SDS011;28250;52.320;0.360;2022-07-04T04:07:55;3.33;;;2.20;;
42616;SDS011;28250;52.320;0.360;2022-07-04T04:10:24;3.05;;;1.95;;
42616;SDS011;28250;52.320;0.360;2022-07-04T04:12:53;5.20;;;1.75;;
42616;SDS011;28250;52.320;0.360;2022-07-04T04:15:20;2.20;;;2.00;;
42616;SDS011;28250;52.320;0.360;2022-07-04T04:17:47;4.70;;;1.75;;
42616;SDS011;28250;52.320;0.360;2022-07-04T04:20:13;2.50;;;2.25;;
42616;SDS011;28250;52.320;0.360;2022-07-04T04:22:40;2.37;;;2.10;;
42616;SDS011;28250;52.320;0.360;2022-07-04T04:25:07;3.10;;;2.00;;
42616;SDS011;28250;52.320;0.360;2022-07-04T04:27:34;3.88;;;1.77;;
42616;SDS011;28250;52.320;0.360;2022-07-04T04:30:01;2.63;;;1.67;;
42616;SDS011;28250;52.320;0.360;2022-07-04T04:32:28;2.00;;;1.58;;
42616;SDS011;28250;52.320;0.360;2022-07-04T04:34:54;6.07;;;1.95;;
42616;SDS011;28250;52.320;0.360;2022-07-04T04:37:21;6.93;;;1.98;;
42616;SDS011;28250;52.320;0.360;2022-07-04T04:39:48;2.60;;;1.83;;
42616;SDS011;28250;52.320;0.360;2022-07-04T04:42:14;4.90;;;2.15;;
42616;SDS011;28250;52.320;0.360;2022-07-04T04:44:41;3.33;;;1.90;;
42616;SDS011;28250;52.320;0.360;2022-07-04T04:47:08;1.85;;;1.70;;
42616;SDS011;28250;52.320;0.360;2022-07-04T04:49:34;2.58;;;2.13;;
42616;SDS011;28250;52.320;0.360;2022-07-04T04:52:01;3.97;;;1.92;;
42616;SDS011;28250;52.320;0.360;2022-07-04T04:54:28;4.63;;;2.00;;
42616;SDS011;28250;52.320;0.360;2022-07-04T04:56:55;3.10;;;1.80;;
42616;SDS011;28250;52.320;0.360;2022-07-04T04:59:21;4.43;;;1.90;;
42616;SDS011;28250;52.320;0.360;2022-07-04T05:01:48;3.45;;;2.00;;
42616;SDS011;28250;52.320;0.360;2022-07-04T05:04:14;4.30;;;2.07;;
42616;SDS011;28250;52.320;0.360;2022-07-04T05:06:41;2.90;;;1.95;;
42616;SDS011;28250;52.320;0.360;2022-07-04T05:09:08;3.17;;;2.13;;
42616;SDS011;28250;52.320;0.360;2022-07-04T05:11:35;7.87;;;2.53;;
42616;SDS011;28250;52.320;0.360;2022-07-04T05:14:02;3.00;;;2.23;;
42616;SDS011;28250;52.320;0.360;2022-07-04T05:16:28;3.60;;;2.35;;
42616;SDS011;28250;52.320;0.360;2022-07-04T05:18:56;4.75;;;1.90;;
42616;SDS011;28250;52.320;0.360;2022-07-04T05:21:22;3.83;;;2.00;;
42616;SDS011;28250;52.320;0.360;2022-07-04T05:23:52;2.83;;;2.08;;
42616;SDS011;28250;52.320;0.360;2022-07-04T05:26:18;2.17;;;1.92;;
42616;SDS011;28250;52.320;0.360;2022-07-04T05:28:45;5.97;;;2.10;;
42616;SDS011;28250;52.320;0.360;2022-07-04T05:31:11;6.97;;;1.70;;
42616;SDS011;28250;52.320;0.360;2022-07-04T05:33:38;5.27;;;2.17;;
42616;SDS011;28250;52.320;0.360;2022-07-04T05:36:05;4.13;;;2.05;;
42616;SDS011;28250;52.320;0.360;2022-07-04T05:38:32;5.00;;;1.85;;
42616;SDS011;28250;52.320;0.360;2022-07-04T05:40:58;4.80;;;2.30;;
42616;SDS011;28250;52.320;0.360;2022-07-04T05:43:26;4.20;;;2.58;;
42616;SDS011;28250;52.320;0.360;2022-07-04T05:45:52;6.10;;;2.20;;
42616;SDS011;28250;52.320;0.360;2022-07-04T05:48:19;3.23;;;2.50;;
42616;SDS011;28250;52.320;0.360;2022-07-04T05:50:46;2.83;;;2.37;;
42616;SDS011;28250;52.320;0.360;2022-07-04T05:53:12;5.03;;;2.00;;
42616;SDS011;28250;52.320;0.360;2022-07-04T05:55:39;5.78;;;2.40;;
42616;SDS011;28250;52.320;0.360;2022-07-04T05:58:06;5.07;;;2.37;;
42616;SDS011;28250;52.320;0.360;2022-07-04T06:00:32;5.97;;;2.70;;
42616;SDS011;28250;52.320;0.360;2022-07-04T06:02:59;2.80;;;2.30;;
42616;SDS011;28250;52.320;0.360;2022-07-04T06:05:27;3.67;;;2.30;;
42616;SDS011;28250;52.320;0.360;2022-07-04T06:07:53;3.92;;;2.38;;
42616;SDS011;28250;52.320;0.360;2022-07-04T06:10:20;3.13;;;2.10;;
42616;SDS011;28250;52.320;0.360;2022-07-04T06:12:47;4.83;;;2.40;;
42616;SDS011;28250;52.320;0.360;2022-07-04T06:15:13;7.80;;;3.10;;
42616;SDS011;28250;52.320;0.360;2022-07-04T06:17:41;3.53;;;2.25;;
42616;SDS011;28250;52.320;0.360;2022-07-04T06:20:08;2.55;;;2.10;;
42616;SDS011;28250;52.320;0.360;2022-07-04T06:22:42;4.20;;;1.90;;
42616;SDS011;28250;52.320;0.360;2022-07-04T06:25:12;3.63;;;1.95;;
42616;SDS011;28250;52.320;0.360;2022-07-04T06:27:41;2.63;;;1.80;;
42616;SDS011;28250;52.320;0.360;2022-07-04T06:30:09;4.10;;;1.85;;
42616;SDS011;28250;52.320;0.360;2022-07-04T06:35:23;1.75;;;1.65;;
42616;SDS011;28250;52.320;0.360;2022-07-04T06:38:12;3.95;;;1.80;;
42616;SDS011;28250;52.320;0.360;2022-07-04T06:40:42;3.80;;;1.83;;
42616;SDS011;28250;52.320;0.360;2022-07-04T06:43:09;3.08;;;1.33;;
42616;SDS011;28250;52.320;0.360;2022-07-04T06:45:36;2.72;;;1.75;;
42616;SDS011;28250;52.320;0.360;2022-07-04T06:48:04;2.40;;;1.48;;
42616;SDS011;28250;52.320;0.360;2022-07-04T06:50:31;1.50;;;1.40;;
42616;SDS011;28250;52.320;0.360;2022-07-04T06:52:59;1.92;;;1.20;;
42616;SDS011;28250;52.320;0.360;2022-07-04T06:55:28;2.92;;;1.00;;
42616;SDS011;28250;52.320;0.360;2022-07-04T06:57:55;2.00;;;1.25;;
42616;SDS011;28250;52.320;0.360;2022-07-04T07:00:22;1.52;;;1.10;;
42616;SDS011;28250;52.320;0.360;2022-07-04T07:02:49;1.35;;;1.00;;
42616;SDS011;28250;52.320;0.360;2022-07-04T07:05:15;1.98;;;1.00;;
42616;SDS011;28250;52.320;0.360;2022-07-04T07:07:42;3.85;;;0.90;;
42616;SDS011;28250;52.320;0.360;2022-07-04T07:10:09;2.85;;;1.80;;
42616;SDS011;28250;52.320;0.360;2022-07-04T07:12:36;1.48;;;1.00;;
42616;SDS011;28250;52.320;0.360;2022-07-04T07:15:02;3.78;;;0.80;;
42616;SDS011;28250;52.320;0.360;2022-07-04T07:17:30;2.63;;;0.90;;
42616;SDS011;28250;52.320;0.360;2022-07-04T07:19:57;2.47;;;0.80;;
42616;SDS011;28250;52.320;0.360;2022-07-04T07:22:23;3.17;;;0.87;;
42616;SDS011;28250;52.320;0.360;2022-07-04T07:24:50;2.42;;;0.80;;
42616;SDS011;28250;52.320;0.360;2022-07-04T07:27:17;1.85;;;0.60;;
42616;SDS011;28250;52.320;0.360;2022-07-04T07:32:10;1.43;;;0.67;;
42616;SDS011;28250;52.320;0.360;2022-07-04T07:34:37;2.17;;;0.57;;
42616;SDS011;28250;52.320;0.360;2022-07-04T07:37:03;1.70;;;0.60;;
42616;SDS011;28250;52.320;0.360;2022-07-04T07:39:30;2.53;;;0.60;;
42616;SDS011;28250;52.320;0.360;2022-07-04T07:41:57;0.60;;;0.50;;
42616;SDS011;28250;52.320;0.360;2022-07-04T07:44:23;2.33;;;0.60;;
42616;SDS011;28250;52.320;0.360;2022-07-04T07:46:50;0.70;;;0.70;;
42616;SDS011;28250;52.320;0.360;2022-07-04T07:49:16;2.30;;;0.60;;
42616;SDS011;28250;52.320;0.360;2022-07-04T07:51:43;1.23;;;0.55;;
42616;SDS011;28250;52.320;0.360;2022-07-04T07:54:10;1.35;;;0.50;;
42616;SDS011;28250;52.320;0.360;2022-07-04T07:56:36;1.80;;;0.52;;
42616;SDS011;28250;52.320;0.360;2022-07-04T07:59:03;1.58;;;0.50;;
42616;SDS011;28250;52.320;0.360;2022-07-04T08:01:30;1.48;;;0.60;;
42616;SDS011;28250;52.320;0.360;2022-07-04T08:03:57;1.13;;;0.70;;
42616;SDS011;28250;52.320;0.360;2022-07-04T08:06:41;1.70;;;0.50;;
42616;SDS011;28250;52.320;0.360;2022-07-04T08:09:08;0.93;;;0.30;;
42616;SDS011;28250;52.320;0.360;2022-07-04T08:11:35;2.28;;;0.50;;
42616;SDS011;28250;52.320;0.360;2022-07-04T08:14:05;1.92;;;0.57;;
42616;SDS011;28250;52.320;0.360;2022-07-04T08:19:00;1.23;;;0.55;;
42616;SDS011;28250;52.320;0.360;2022-07-04T08:21:28;0.98;;;0.30;;
42616;SDS011;28250;52.320;0.360;2022-07-04T08:23:55;0.95;;;0.43;;
42616;SDS011;28250;52.320;0.360;2022-07-04T08:26:21;0.43;;;0.40;;
42616;SDS011;28250;52.320;0.360;2022-07-04T08:28:48;1.95;;;0.50;;
42616;SDS011;28250;52.320;0.360;2022-07-04T08:31:18;1.13;;;0.32;;
42616;SDS011;28250;52.320;0.360;2022-07-04T08:33:45;3.45;;;0.50;;
42616;SDS011;28250;52.320;0.360;2022-07-04T08:36:13;1.58;;;0.45;;
42616;SDS011;28250;52.320;0.360;2022-07-04T08:38:39;0.77;;;0.40;;
42616;SDS011;28250;52.320;0.360;2022-07-04T08:41:06;2.67;;;0.50;;
42616;SDS011;28250;52.320;0.360;2022-07-04T08:43:33;0.52;;;0.50;;
42616;SDS011;28250;52.320;0.360;2022-07-04T08:46:03;3.35;;;0.55;;
42616;SDS011;28250;52.320;0.360;2022-07-04T08:48:31;1.15;;;0.40;;
42616;SDS011;28250;52.320;0.360;2022-07-04T08:51:01;1.60;;;0.70;;
42616;SDS011;28250;52.320;0.360;2022-07-04T08:53:39;2.70;;;0.60;;
42616;SDS011;28250;52.320;0.360;2022-07-04T08:56:17;2.38;;;0.65;;
42616;SDS011;28250;52.320;0.360;2022-07-04T08:59:05;0.95;;;0.40;;
42616;SDS011;28250;52.320;0.360;2022-07-04T09:01:32;1.17;;;0.50;;
42616;SDS011;28250;52.320;0.360;2022-07-04T09:04:00;1.80;;;0.50;;
42616;SDS011;28250;52.320;0.360;2022-07-04T09:06:27;3.08;;;0.52;;
42616;SDS011;28250;52.320;0.360;2022-07-04T09:08:54;0.50;;;0.30;;
42616;SDS011;28250;52.320;0.360;2022-07-04T09:11:21;3.85;;;0.40;;
42616;SDS011;28250;52.320;0.360;2022-07-04T09:13:48;0.77;;;0.50;;
42616;SDS011;28250;52.320;0.360;2022-07-04T09:16:14;2.08;;;0.40;;
42616;SDS011;28250;52.320;0.360;2022-07-04T09:18:41;0.55;;;0.43;;
42616;SDS011;28250;52.320;0.360;2022-07-04T09:21:09;0.75;;;0.50;;
42616;SDS011;28250;52.320;0.360;2022-07-04T09:23:38;0.88;;;0.40;;
42616;SDS011;28250;52.320;0.360;2022-07-04T09:26:15;1.77;;;0.40;;
42616;SDS011;28250;52.320;0.360;2022-07-04T09:28:50;2.83;;;0.60;;
42616;SDS011;28250;52.320;0.360;2022-07-04T09:31:20;1.92;;;0.57;;
42616;SDS011;28250;52.320;0.360;2022-07-04T09:33:53;1.77;;;0.50;;
42616;SDS011;28250;52.320;0.360;2022-07-04T09:36:22;2.05;;;0.50;;
42616;SDS011;28250;52.320;0.360;2022-07-04T09:41:49;1.83;;;0.50;;
42616;SDS011;28250;52.320;0.360;2022-07-04T09:44:20;2.13;;;0.65;;
42616;SDS011;28250;52.320;0.360;2022-07-04T09:46:48;2.15;;;0.50;;
42616;SDS011;28250;52.320;0.360;2022-07-04T09:49:15;0.75;;;0.40;;
42616;SDS011;28250;52.320;0.360;2022-07-04T09:51:43;0.70;;;0.50;;
42616;SDS011;28250;52.320;0.360;2022-07-04T09:54:20;0.80;;;0.50;;
42616;SDS011;28250;52.320;0.360;2022-07-04T09:56:51;1.08;;;0.60;;
42616;SDS011;28250;52.320;0.360;2022-07-04T09:59:21;1.85;;;0.60;;
42616;SDS011;28250;52.320;0.360;2022-07-04T10:01:49;1.13;;;0.60;;
42616;SDS011;28250;52.320;0.360;2022-07-04T10:04:16;0.90;;;0.57;;
42616;SDS011;28250;52.320;0.360;2022-07-04T10:06:46;1.65;;;0.60;;
42616;SDS011;28250;52.320;0.360;2022-07-04T10:09:14;0.65;;;0.60;;
42616;SDS011;28250;52.320;0.360;2022-07-04T10:11:43;2.97;;;0.60;;
42616;SDS011;28250;52.320;0.360;2022-07-04T10:14:13;3.25;;;0.60;;
42616;SDS011;28250;52.320;0.360;2022-07-04T10:16:41;1.77;;;0.43;;
42616;SDS011;28250;52.320;0.360;2022-07-04T10:19:08;1.55;;;0.63;;
42616;SDS011;28250;52.320;0.360;2022-07-04T10:21:38;0.98;;;0.75;;
42616;SDS011;28250;52.320;0.360;2022-07-04T10:24:05;1.13;;;0.60;;
42616;SDS011;28250;52.320;0.360;2022-07-04T10:28:58;0.95;;;0.60;;
42616;SDS011;28250;52.320;0.360;2022-07-04T10:31:26;2.40;;;0.70;;
42616;SDS011;28250;52.320;0.360;2022-07-04T10:33:56;1.52;;;0.80;;
42616;SDS011;28250;52.320;0.360;2022-07-04T10:36:25;1.52;;;0.70;;
42616;SDS011;28250;52.320;0.360;2022-07-04T10:38:56;0.70;;;0.60;;
42616;SDS011;28250;52.320;0.360;2022-07-04T10:41:25;1.15;;;0.70;;
42616;SDS011;28250;52.320;0.360;2022-07-04T10:43:57;1.27;;;0.60;;
42616;SDS011;28250;52.320;0.360;2022-07-04T10:57:09;2.55;;;0.88;;
42616;SDS011;28250;52.320;0.360;2022-07-04T10:59:41;1.25;;;0.80;;
42616;SDS011;28250;52.320;0.360;2022-07-04T11:02:30;1.23;;;0.70;;
42616;SDS011;28250;52.320;0.360;2022-07-04T11:17:53;1.08;;;0.60;;
42616;SDS011;28250;52.320;0.360;2022-07-04T11:20:24;3.03;;;1.00;;
42616;SDS011;28250;52.320;0.360;2022-07-04T11:23:03;2.33;;;0.73;;
42616;SDS011;28250;52.320;0.360;2022-07-04T11:25:32;1.38;;;0.65;;
42616;SDS011;28250;52.320;0.360;2022-07-04T11:28:19;1.38;;;0.90;;
42616;SDS011;28250;52.320;0.360;2022-07-04T11:30:56;1.63;;;0.68;;
42616;SDS011;28250;52.320;0.360;2022-07-04T11:33:28;2.83;;;0.70;;
42616;SDS011;28250;52.320;0.360;2022-07-04T11:38:47;0.85;;;0.60;;
42616;SDS011;28250;52.320;0.360;2022-07-04T11:41:33;0.80;;;0.60;;
42616;SDS011;28250;52.320;0.360;2022-07-04T11:44:20;1.85;;;0.60;;
42616;SDS011;28250;52.320;0.360;2022-07-04T11:47:12;2.22;;;0.75;;
42616;SDS011;28250;52.320;0.360;2022-07-04T11:49:43;1.13;;;0.70;;
42616;SDS011;28250;52.320;0.360;2022-07-04T11:52:13;2.38;;;0.90;;
42616;SDS011;28250;52.320;0.360;2022-07-04T11:54:42;1.88;;;0.80;;
42616;SDS011;28250;52.320;0.360;2022-07-04T11:59:43;2.95;;;0.90;;
42616;SDS011;28250;52.320;0.360;2022-07-04T12:02:18;0.70;;;0.70;;
42616;SDS011;28250;52.320;0.360;2022-07-04T12:04:45;1.05;;;0.77;;
42616;SDS011;28250;52.320;0.360;2022-07-04T12:07:12;3.88;;;0.98;;
42616;SDS011;28250;52.320;0.360;2022-07-04T12:09:43;1.75;;;0.80;;
42616;SDS011;28250;52.320;0.360;2022-07-04T12:12:15;1.17;;;0.70;;
42616;SDS011;28250;52.320;0.360;2022-07-04T12:17:37;0.80;;;0.80;;
42616;SDS011;28250;52.320;0.360;2022-07-04T12:22:41;1.55;;;0.68;;
42616;SDS011;28250;52.320;0.360;2022-07-04T12:25:23;0.80;;;0.80;;
42616;SDS011;28250;52.320;0.360;2022-07-04T12:28:06;3.42;;;1.05;;
42616;SDS011;28250;52.320;0.360;2022-07-04T12:33:06;0.73;;;0.73;;
42616;SDS011;28250;52.320;0.360;2022-07-04T12:38:17;1.85;;;1.10;;
42616;SDS011;28250;52.320;0.360;2022-07-04T12:40:50;0.70;;;0.70;;
42616;SDS011;28250;52.320;0.360;2022-07-04T12:43:26;1.25;;;0.82;;
42616;SDS011;28250;52.320;0.360;2022-07-04T12:51:31;0.95;;;0.80;;
42616;SDS011;28250;52.320;0.360;2022-07-04T12:54:06;2.20;;;1.10;;
42616;SDS011;28250;52.320;0.360;2022-07-04T12:56:37;1.13;;;0.90;;
42616;SDS011;28250;52.320;0.360;2022-07-04T12:59:06;1.52;;;1.25;;
42616;SDS011;28250;52.320;0.360;2022-07-04T13:01:36;2.83;;;2.28;;
42616;SDS011;28250;52.320;0.360;2022-07-04T13:04:04;6.53;;;3.15;;
42616;SDS011;28250;52.320;0.360;2022-07-04T13:08:58;1.75;;;1.10;;
42616;SDS011;28250;52.320;0.360;2022-07-04T13:11:24;2.75;;;1.00;;
42616;SDS011;28250;52.320;0.360;2022-07-04T13:14:10;2.40;;;1.30;;
42616;SDS011;28250;52.320;0.360;2022-07-04T13:16:36;1.40;;;1.00;;
42616;SDS011;28250;52.320;0.360;2022-07-04T13:19:03;1.10;;;0.82;;
42616;SDS011;28250;52.320;0.360;2022-07-04T13:21:30;1.07;;;1.00;;
42616;SDS011;28250;52.320;0.360;2022-07-04T13:23:56;0.75;;;0.70;;
42616;SDS011;28250;52.320;0.360;2022-07-04T13:26:23;2.88;;;1.13;;
42616;SDS011;28250;52.320;0.360;2022-07-04T13:28:50;3.40;;;1.20;;
42616;SDS011;28250;52.320;0.360;2022-07-04T13:31:17;2.80;;;1.13;;
42616;SDS011;28250;52.320;0.360;2022-07-04T13:33:43;2.10;;;0.90;;
42616;SDS011;28250;52.320;0.360;2022-07-04T13:36:10;2.65;;;1.23;;
42616;SDS011;28250;52.320;0.360;2022-07-04T13:38:36;2.65;;;1.23;;
42616;SDS011;28250;52.320;0.360;2022-07-04T13:41:03;4.68;;;0.90;;
42616;SDS011;28250;52.320;0.360;2022-07-04T13:43:30;2.03;;;1.00;;
42616;SDS011;28250;52.320;0.360;2022-07-04T13:45:57;2.50;;;1.05;;
42616;SDS011;28250;52.320;0.360;2022-07-04T13:48:24;1.38;;;0.98;;
42616;SDS011;28250;52.320;0.360;2022-07-04T13:50:50;1.27;;;0.90;;
42616;SDS011;28250;52.320;0.360;2022-07-04T13:53:17;2.60;;;1.42;;
42616;SDS011;28250;52.320;0.360;2022-07-04T13:55:45;4.05;;;1.27;;
42616;SDS011;28250;52.320;0.360;2022-07-04T13:58:12;4.85;;;0.98;;
42616;SDS011;28250;52.320;0.360;2022-07-04T14:00:40;1.20;;;0.90;;
42616;SDS011;28250;52.320;0.360;2022-07-04T14:03:10;2.90;;;0.90;;
42616;SDS011;28250;52.320;0.360;2022-07-04T14:05:40;2.28;;;1.17;;
42616;SDS011;28250;52.320;0.360;2022-07-04T14:08:07;1.20;;;0.90;;
42616;SDS011;28250;52.320;0.360;2022-07-04T14:10:34;1.95;;;0.80;;
42616;SDS011;28250;52.320;0.360;2022-07-04T14:13:01;4.75;;;0.90;;
42616;SDS011;28250;52.320;0.360;2022-07-04T14:15:28;0.85;;;0.70;;
42616;SDS011;28250;52.320;0.360;2022-07-04T14:17:54;1.25;;;0.80;;
42616;SDS011;28250;52.320;0.360;2022-07-04T14:20:21;0.93;;;0.80;;
42616;SDS011;28250;52.320;0.360;2022-07-04T14:22:47;0.98;;;0.88;;
42616;SDS011;28250;52.320;0.360;2022-07-04T14:25:14;3.00;;;1.20;;
42616;SDS011;28250;52.320;0.360;2022-07-04T14:27:40;1.95;;;0.85;;
42616;SDS011;28250;52.320;0.360;2022-07-04T14:30:07;4.13;;;0.83;;
42616;SDS011;28250;52.320;0.360;2022-07-04T14:35:01;2.33;;;0.85;;
42616;SDS011;28250;52.320;0.360;2022-07-04T14:37:27;2.53;;;0.82;;
42616;SDS011;28250;52.320;0.360;2022-07-04T14:39:54;2.87;;;0.80;;
42616;SDS011;28250;52.320;0.360;2022-07-04T14:42:21;2.38;;;0.90;;
42616;SDS011;28250;52.320;0.360;2022-07-04T14:44:47;1.92;;;1.05;;
42616;SDS011;28250;52.320;0.360;2022-07-04T14:47:14;1.10;;;0.93;;
42616;SDS011;28250;52.320;0.360;2022-07-04T14:49:40;3.27;;;0.80;;
42616;SDS011;28250;52.320;0.360;2022-07-04T14:52:07;1.83;;;0.82;;
42616;SDS011;28250;52.320;0.360;2022-07-04T14:54:34;1.17;;;0.90;;
42616;SDS011;28250;52.320;0.360;2022-07-04T14:57:00;2.50;;;0.98;;
42616;SDS011;28250;52.320;0.360;2022-07-04T14:59:27;1.08;;;0.85;;
42616;SDS011;28250;52.320;0.360;2022-07-04T15:01:54;1.55;;;0.65;;
42616;SDS011;28250;52.320;0.360;2022-07-04T15:04:20;0.95;;;0.60;;
42616;SDS011;28250;52.320;0.360;2022-07-04T15:06:47;2.72;;;0.90;;
42616;SDS011;28250;52.320;0.360;2022-07-04T15:09:13;1.05;;;0.80;;
42616;SDS011;28250;52.320;0.360;2022-07-04T15:11:40;3.92;;;1.20;;
42616;SDS011;28250;52.320;0.360;2022-07-04T15:14:06;1.58;;;1.00;;
42616;SDS011;28250;52.320;0.360;2022-07-04T15:16:33;1.83;;;0.70;;
42616;SDS011;28250;52.320;0.360;2022-07-04T15:21:27;1.05;;;0.75;;
42616;SDS011;28250;52.320;0.360;2022-07-04T15:24:12;1.42;;;0.68;;
42616;SDS011;28250;52.320;0.360;2022-07-04T15:26:42;1.10;;;0.98;;
42616;SDS011;28250;52.320;0.360;2022-07-04T15:29:15;1.27;;;1.10;;
42616;SDS011;28250;52.320;0.360;2022-07-04T15:31:44;1.27;;;0.60;;
42616;SDS011;28250;52.320;0.360;2022-07-04T15:34:13;1.33;;;0.80;;
42616;SDS011;28250;52.320;0.360;2022-07-04T15:36:43;4.22;;;1.08;;
42616;SDS011;28250;52.320;0.360;2022-07-04T15:39:11;2.53;;;1.00;;
42616;SDS011;28250;52.320;0.360;2022-07-04T15:41:40;2.30;;;0.90;;
42616;SDS011;28250;52.320;0.360;2022-07-04T15:44:12;1.80;;;0.82;;
42616;SDS011;28250;52.320;0.360;2022-07-04T15:46:39;1.98;;;0.90;;
42616;SDS011;28250;52.320;0.360;2022-07-04T15:49:24;1.80;;;0.70;;
42616;SDS011;28250;52.320;0.360;2022-07-04T15:51:52;0.80;;;0.80;;
42616;SDS011;28250;52.320;0.360;2022-07-04T15:54:18;1.25;;;0.80;;
42616;SDS011;28250;52.320;0.360;2022-07-04T15:56:45;2.63;;;1.00;;
42616;SDS011;28250;52.320;0.360;2022-07-04T15:59:12;1.88;;;0.90;;
42616;SDS011;28250;52.320;0.360;2022-07-04T16:01:38;1.85;;;0.90;;
42616;SDS011;28250;52.320;0.360;2022-07-04T16:04:06;2.38;;;0.80;;
42616;SDS011;28250;52.320;0.360;2022-07-04T16:06:33;2.38;;;0.60;;
42616;SDS011;28250;52.320;0.360;2022-07-04T16:09:00;4.47;;;0.70;;